sensor_id;sensor_type;location;lat;lon;timestamp;P1;durP1;ratioP1;P2;durP2;ratioP2
30000;SDS011;16845;48.670;9.000;2023-06-10T00:02:25;6.95;;;6.25;;
30000;SDS011;16845;48.670;9.000;2023-06-10T00:04:54;10.68;;;5.43;;
30000;SDS011;16845;48.670;9.000;2023-06-10T00:07:21;11.48;;;6.10;;
30000;SDS011;16845;48.670;9.000;2023-06-10T00:09:47;9.98;;;6.63;;
30000;SDS011;16845;48.670;9.000;2023-06-10T00:12:14;6.72;;;5.90;;
30000;SDS011;16845;48.670;9.000;2023-06-10T00:14:40;12.00;;;6.07;;
30000;SDS011;16845;48.670;9.000;2023-06-10T00:17:07;7.47;;;6.72;;
30000;SDS011;16845;48.670;9.000;2023-06-10T00:19:33;7.30;;;6.43;;
30000;SDS011;16845;48.670;9.000;2023-06-10T00:22:01;13.05;;;6.75;;
30000;SDS011;16845;48.670;9.000;2023-06-10T00:24:28;6.32;;;5.43;;
30000;SDS011;16845;48.670;9.000;2023-06-10T00:26:55;6.70;;;6.03;;
30000;SDS011;16845;48.670;9.000;2023-06-10T00:29:21;8.93;;;5.90;;
30000;SDS011;16845;48.670;9.000;2023-06-10T00:31:48;9.65;;;5.68;;
30000;SDS011;16845;48.670;9.000;2023-06-10T00:34:14;7.57;;;6.67;;
30000;SDS011;16845;48.670;9.000;2023-06-10T00:36:41;11.25;;;7.03;;
30000;SDS011;16845;48.670;9.000;2023-06-10T00:39:09;7.13;;;6.40;;
30000;SDS011;16845;48.670;9.000;2023-06-10T00:41:35;8.07;;;6.32;;
30000;SDS011;16845;48.670;9.000;2023-06-10T00:44:02;7.60;;;6.22;;
30000;SDS011;16845;48.670;9.000;2023-06-10T00:46:29;7.10;;;6.13;;
30000;SDS011;16845;48.670;9.000;2023-06-10T00:48:55;7.00;;;6.13;;
30000;SDS011;16845;48.670;9.000;2023-06-10T00:51:22;7.63;;;6.90;;
30000;SDS011;16845;48.670;9.000;2023-06-10T00:53:49;11.33;;;6.53;;
30000;SDS011;16845;48.670;9.000;2023-06-10T00:56:17;7.32;;;6.63;;
30000;SDS011;16845;48.670;9.000;2023-06-10T00:58:43;7.80;;;6.57;;
30000;SDS011;16845;48.670;9.000;2023-06-10T01:01:11;10.82;;;7.43;;
30000;SDS011;16845;48.670;9.000;2023-06-10T01:03:37;9.82;;;6.63;;
30000;SDS011;16845;48.670;9.000;2023-06-10T01:06:06;8.38;;;7.25;;
30000;SDS011;16845;48.670;9.000;2023-06-10T01:08:42;9.82;;;6.35;;
30000;SDS011;16845;48.670;9.000;2023-06-10T01:11:17;10.45;;;7.38;;
30000;SDS011;16845;48.670;9.000;2023-06-10T01:13:50;10.27;;;6.88;;
30000;SDS011;16845;48.670;9.000;2023-06-10T01:16:17;8.15;;;6.47;;
30000;SDS011;16845;48.670;9.000;2023-06-10T01:18:45;8.90;;;7.18;;
30000;SDS011;16845;48.670;9.000;2023-06-10T01:21:15;9.02;;;6.35;;
30000;SDS011;16845;48.670;9.000;2023-06-10T01:23:46;8.82;;;7.10;;
30000;SDS011;16845;48.670;9.000;2023-06-10T01:26:12;7.77;;;6.63;;
30000;SDS011;16845;48.670;9.000;2023-06-10T01:28:41;9.77;;;6.70;;
30000;SDS011;16845;48.670;9.000;2023-06-10T01:31:15;9.23;;;7.30;;
30000;SDS011;16845;48.670;9.000;2023-06-10T01:33:45;8.45;;;6.63;;
30000;SDS011;16845;48.670;9.000;2023-06-10T01:36:17;23.05;;;7.53;;
30000;SDS011;16845;48.670;9.000;2023-06-10T01:38:44;12.77;;;7.85;;
30000;SDS011;16845;48.670;9.000;2023-06-10T01:41:12;8.00;;;6.95;;
30000;SDS011;16845;48.670;9.000;2023-06-10T01:43:40;8.35;;;6.93;;
30000;SDS011;16845;48.670;9.000;2023-06-10T01:46:09;9.10;;;7.18;;
30000;SDS011;16845;48.670;9.000;2023-06-10T01:48:36;7.78;;;6.93;;
30000;SDS011;16845;48.670;9.000;2023-06-10T01:51:03;9.68;;;8.02;;
30000;SDS011;16845;48.670;9.000;2023-06-10T01:53:31;9.45;;;7.07;;
30000;SDS011;16845;48.670;9.000;2023-06-10T01:55:57;8.40;;;7.00;;
30000;SDS011;16845;48.670;9.000;2023-06-10T01:58:24;9.50;;;7.43;;
30000;SDS011;16845;48.670;9.000;2023-06-10T02:00:50;9.35;;;7.50;;
30000;SDS011;16845;48.670;9.000;2023-06-10T02:03:17;12.40;;;7.97;;
30000;SDS011;16845;48.670;9.000;2023-06-10T02:05:44;8.63;;;7.73;;
30000;SDS011;16845;48.670;9.000;2023-06-10T02:08:10;9.40;;;7.38;;
30000;SDS011;16845;48.670;9.000;2023-06-10T02:10:38;8.97;;;7.83;;
30000;SDS011;16845;48.670;9.000;2023-06-10T02:13:05;9.48;;;7.70;;
30000;SDS011;16845;48.670;9.000;2023-06-10T02:15:31;9.53;;;8.57;;
30000;SDS011;16845;48.670;9.000;2023-06-10T02:17:59;10.65;;;7.05;;
30000;SDS011;16845;48.670;9.000;2023-06-10T02:20:25;8.23;;;7.35;;
30000;SDS011;16845;48.670;9.000;2023-06-10T02:22:52;13.50;;;8.40;;
30000;SDS011;16845;48.670;9.000;2023-06-10T02:25:18;8.82;;;7.50;;
30000;SDS011;16845;48.670;9.000;2023-06-10T02:27:46;11.63;;;9.07;;
30000;SDS011;16845;48.670;9.000;2023-06-10T02:30:13;11.73;;;8.00;;
30000;SDS011;16845;48.670;9.000;2023-06-10T02:32:40;9.07;;;7.55;;
30000;SDS011;16845;48.670;9.000;2023-06-10T02:35:06;8.80;;;7.88;;
30000;SDS011;16845;48.670;9.000;2023-06-10T02:37:34;9.38;;;8.05;;
30000;SDS011;16845;48.670;9.000;2023-06-10T02:40:00;12.68;;;8.70;;
30000;SDS011;16845;48.670;9.000;2023-06-10T02:42:27;8.90;;;8.00;;
30000;SDS011;16845;48.670;9.000;2023-06-10T02:44:55;10.25;;;8.68;;
30000;SDS011;16845;48.670;9.000;2023-06-10T02:47:21;12.45;;;7.97;;
30000;SDS011;16845;48.670;9.000;2023-06-10T02:49:48;9.77;;;7.90;;
30000;SDS011;16845;48.670;9.000;2023-06-10T02:52:14;10.63;;;8.52;;
30000;SDS011;16845;48.670;9.000;2023-06-10T02:54:41;11.00;;;9.00;;
30000;SDS011;16845;48.670;9.000;2023-06-10T02:57:07;9.93;;;8.70;;
30000;SDS011;16845;48.670;9.000;2023-06-10T02:59:34;10.95;;;8.85;;
30000;SDS011;16845;48.670;9.000;2023-06-10T03:02:02;11.80;;;7.95;;
30000;SDS011;16845;48.670;9.000;2023-06-10T03:04:29;11.63;;;8.75;;
30000;SDS011;16845;48.670;9.000;2023-06-10T03:06:55;11.00;;;8.57;;
30000;SDS011;16845;48.670;9.000;2023-06-10T03:09:22;10.63;;;8.37;;
30000;SDS011;16845;48.670;9.000;2023-06-10T03:11:48;13.77;;;8.40;;
30000;SDS011;16845;48.670;9.000;2023-06-10T03:14:15;12.07;;;8.70;;
30000;SDS011;16845;48.670;9.000;2023-06-10T03:16:41;9.68;;;8.68;;
30000;SDS011;16845;48.670;9.000;2023-06-10T03:19:09;10.77;;;8.93;;
30000;SDS011;16845;48.670;9.000;2023-06-10T03:21:36;11.65;;;9.38;;
30000;SDS011;16845;48.670;9.000;2023-06-10T03:24:03;11.70;;;8.30;;
30000;SDS011;16845;48.670;9.000;2023-06-10T03:26:30;9.32;;;8.38;;
30000;SDS011;16845;48.670;9.000;2023-06-10T03:28:56;9.50;;;7.93;;
30000;SDS011;16845;48.670;9.000;2023-06-10T03:31:23;12.02;;;8.43;;
30000;SDS011;16845;48.670;9.000;2023-06-10T03:33:50;12.20;;;8.95;;
30000;SDS011;16845;48.670;9.000;2023-06-10T03:36:17;10.88;;;8.70;;
30000;SDS011;16845;48.670;9.000;2023-06-10T03:38:44;9.15;;;8.25;;
30000;SDS011;16845;48.670;9.000;2023-06-10T03:41:10;9.82;;;8.60;;
30000;SDS011;16845;48.670;9.000;2023-06-10T03:43:37;10.35;;;8.82;;
30000;SDS011;16845;48.670;9.000;2023-06-10T03:46:04;11.77;;;10.20;;
30000;SDS011;16845;48.670;9.000;2023-06-10T03:48:30;9.90;;;8.50;;
30000;SDS011;16845;48.670;9.000;2023-06-10T03:50:57;10.90;;;9.52;;
30000;SDS011;16845;48.670;9.000;2023-06-10T03:53:24;10.05;;;9.02;;
30000;SDS011;16845;48.670;9.000;2023-06-10T03:55:51;14.75;;;9.55;;
30000;SDS011;16845;48.670;9.000;2023-06-10T03:58:18;10.95;;;9.05;;
30000;SDS011;16845;48.670;9.000;2023-06-10T04:00:44;10.57;;;8.88;;
30000;SDS011;16845;48.670;9.000;2023-06-10T04:03:11;10.98;;;8.68;;
30000;SDS011;16845;48.670;9.000;2023-06-10T04:05:38;9.43;;;8.43;;
30000;SDS011;16845;48.670;9.000;2023-06-10T04:08:04;11.40;;;9.77;;
30000;SDS011;16845;48.670;9.000;2023-06-10T04:10:32;15.27;;;9.93;;
30000;SDS011;16845;48.670;9.000;2023-06-10T04:12:59;11.88;;;9.52;;
30000;SDS011;16845;48.670;9.000;2023-06-10T04:15:25;13.65;;;9.30;;
30000;SDS011;16845;48.670;9.000;2023-06-10T04:17:52;12.27;;;9.52;;
30000;SDS011;16845;48.670;9.000;2023-06-10T04:20:18;12.27;;;9.37;;
30000;SDS011;16845;48.670;9.000;2023-06-10T04:22:45;10.05;;;9.02;;
30000;SDS011;16845;48.670;9.000;2023-06-10T04:25:11;10.02;;;8.40;;
30000;SDS011;16845;48.670;9.000;2023-06-10T04:27:39;12.60;;;8.50;;
30000;SDS011;16845;48.670;9.000;2023-06-10T04:30:06;10.05;;;8.75;;
30000;SDS011;16845;48.670;9.000;2023-06-10T04:32:33;9.93;;;8.93;;
30000;SDS011;16845;48.670;9.000;2023-06-10T04:35:00;12.03;;;9.10;;
30000;SDS011;16845;48.670;9.000;2023-06-10T04:37:26;12.43;;;9.18;;
30000;SDS011;16845;48.670;9.000;2023-06-10T04:39:53;12.25;;;9.32;;
30000;SDS011;16845;48.670;9.000;2023-06-10T04:42:19;10.25;;;8.88;;
30000;SDS011;16845;48.670;9.000;2023-06-10T04:44:47;12.10;;;9.18;;
30000;SDS011;16845;48.670;9.000;2023-06-10T04:47:14;15.45;;;9.70;;
30000;SDS011;16845;48.670;9.000;2023-06-10T04:49:40;9.82;;;8.82;;
30000;SDS011;16845;48.670;9.000;2023-06-10T04:52:07;10.88;;;8.32;;
30000;SDS011;16845;48.670;9.000;2023-06-10T04:54:33;12.60;;;8.37;;
30000;SDS011;16845;48.670;9.000;2023-06-10T04:57:00;12.35;;;8.57;;
30000;SDS011;16845;48.670;9.000;2023-06-10T04:59:26;10.82;;;8.85;;
30000;SDS011;16845;48.670;9.000;2023-06-10T05:01:54;11.43;;;8.52;;
30000;SDS011;16845;48.670;9.000;2023-06-10T05:04:21;9.02;;;7.53;;
30000;SDS011;16845;48.670;9.000;2023-06-10T05:06:48;10.88;;;7.28;;
30000;SDS011;16845;48.670;9.000;2023-06-10T05:09:14;8.43;;;7.30;;
30000;SDS011;16845;48.670;9.000;2023-06-10T05:11:41;8.93;;;7.03;;
30000;SDS011;16845;48.670;9.000;2023-06-10T05:14:07;12.93;;;8.20;;
30000;SDS011;16845;48.670;9.000;2023-06-10T05:16:34;10.15;;;7.68;;
30000;SDS011;16845;48.670;9.000;2023-06-10T05:19:02;10.25;;;7.75;;
30000;SDS011;16845;48.670;9.000;2023-06-10T05:21:32;10.18;;;8.27;;
30000;SDS011;16845;48.670;9.000;2023-06-10T05:23:58;7.97;;;7.03;;
30000;SDS011;16845;48.670;9.000;2023-06-10T05:26:25;9.90;;;8.15;;
30000;SDS011;16845;48.670;9.000;2023-06-10T05:28:51;8.98;;;7.75;;
30000;SDS011;16845;48.670;9.000;2023-06-10T05:31:18;9.10;;;7.85;;
30000;SDS011;16845;48.670;9.000;2023-06-10T05:33:44;7.45;;;6.57;;
30000;SDS011;16845;48.670;9.000;2023-06-10T05:36:12;7.28;;;6.53;;
30000;SDS011;16845;48.670;9.000;2023-06-10T05:38:39;9.18;;;7.20;;
30000;SDS011;16845;48.670;9.000;2023-06-10T05:41:05;8.25;;;6.22;;
30000;SDS011;16845;48.670;9.000;2023-06-10T05:43:32;7.88;;;6.35;;
30000;SDS011;16845;48.670;9.000;2023-06-10T05:45:58;8.30;;;6.13;;
30000;SDS011;16845;48.670;9.000;2023-06-10T05:48:25;9.83;;;5.77;;
30000;SDS011;16845;48.670;9.000;2023-06-10T05:50:52;7.38;;;5.70;;
30000;SDS011;16845;48.670;9.000;2023-06-10T05:53:19;8.25;;;5.63;;
30000;SDS011;16845;48.670;9.000;2023-06-10T05:55:46;7.90;;;6.18;;
30000;SDS011;16845;48.670;9.000;2023-06-10T05:58:13;7.32;;;6.15;;
30000;SDS011;16845;48.670;9.000;2023-06-10T06:00:40;6.85;;;6.15;;
30000;SDS011;16845;48.670;9.000;2023-06-10T06:03:07;7.47;;;6.20;;
30000;SDS011;16845;48.670;9.000;2023-06-10T06:05:34;6.15;;;5.30;;
30000;SDS011;16845;48.670;9.000;2023-06-10T06:08:01;6.38;;;5.75;;
30000;SDS011;16845;48.670;9.000;2023-06-10T06:10:29;7.13;;;5.85;;
30000;SDS011;16845;48.670;9.000;2023-06-10T06:12:56;7.47;;;6.13;;
30000;SDS011;16845;48.670;9.000;2023-06-10T06:15:22;7.68;;;5.90;;
30000;SDS011;16845;48.670;9.000;2023-06-10T06:17:49;7.55;;;6.20;;
30000;SDS011;16845;48.670;9.000;2023-06-10T06:20:16;8.27;;;5.87;;
30000;SDS011;16845;48.670;9.000;2023-06-10T06:22:45;7.78;;;6.45;;
30000;SDS011;16845;48.670;9.000;2023-06-10T06:25:12;7.57;;;6.30;;
30000;SDS011;16845;48.670;9.000;2023-06-10T06:27:40;7.75;;;6.28;;
30000;SDS011;16845;48.670;9.000;2023-06-10T06:30:08;7.00;;;5.63;;
30000;SDS011;16845;48.670;9.000;2023-06-10T06:35:01;11.60;;;5.82;;
30000;SDS011;16845;48.670;9.000;2023-06-10T06:37:28;6.27;;;5.67;;
30000;SDS011;16845;48.670;9.000;2023-06-10T06:39:54;8.57;;;6.50;;
30000;SDS011;16845;48.670;9.000;2023-06-10T06:42:21;7.57;;;6.10;;
30000;SDS011;16845;48.670;9.000;2023-06-10T06:44:49;7.17;;;5.50;;
30000;SDS011;16845;48.670;9.000;2023-06-10T06:47:15;10.10;;;5.57;;
30000;SDS011;16845;48.670;9.000;2023-06-10T06:49:42;8.30;;;6.37;;
30000;SDS011;16845;48.670;9.000;2023-06-10T06:52:08;6.13;;;5.47;;
30000;SDS011;16845;48.670;9.000;2023-06-10T06:54:35;7.93;;;5.65;;
30000;SDS011;16845;48.670;9.000;2023-06-10T06:57:02;6.13;;;5.53;;
30000;SDS011;16845;48.670;9.000;2023-06-10T06:59:28;7.63;;;6.20;;
30000;SDS011;16845;48.670;9.000;2023-06-10T07:01:56;7.00;;;6.28;;
30000;SDS011;16845;48.670;9.000;2023-06-10T07:04:23;7.25;;;5.82;;
30000;SDS011;16845;48.670;9.000;2023-06-10T07:06:49;7.80;;;6.00;;
30000;SDS011;16845;48.670;9.000;2023-06-10T07:09:16;9.73;;;5.97;;
30000;SDS011;16845;48.670;9.000;2023-06-10T07:11:43;6.43;;;5.57;;
30000;SDS011;16845;48.670;9.000;2023-06-10T07:14:09;30.75;;;7.35;;
30000;SDS011;16845;48.670;9.000;2023-06-10T07:16:36;6.10;;;5.00;;
30000;SDS011;16845;48.670;9.000;2023-06-10T07:19:04;8.73;;;5.75;;
30000;SDS011;16845;48.670;9.000;2023-06-10T07:21:31;5.95;;;5.32;;
30000;SDS011;16845;48.670;9.000;2023-06-10T07:23:58;9.47;;;5.53;;
30000;SDS011;16845;48.670;9.000;2023-06-10T07:26:24;6.47;;;5.57;;
30000;SDS011;16845;48.670;9.000;2023-06-10T07:28:51;6.63;;;5.53;;
30000;SDS011;16845;48.670;9.000;2023-06-10T07:31:18;6.47;;;5.43;;
30000;SDS011;16845;48.670;9.000;2023-06-10T07:33:44;6.77;;;4.70;;
30000;SDS011;16845;48.670;9.000;2023-06-10T07:36:13;6.10;;;5.30;;
30000;SDS011;16845;48.670;9.000;2023-06-10T07:38:40;8.02;;;5.10;;
30000;SDS011;16845;48.670;9.000;2023-06-10T07:41:06;7.73;;;5.20;;
30000;SDS011;16845;48.670;9.000;2023-06-10T07:43:33;5.50;;;4.80;;
30000;SDS011;16845;48.670;9.000;2023-06-10T07:45:59;6.53;;;4.37;;
30000;SDS011;16845;48.670;9.000;2023-06-10T07:48:26;5.30;;;4.32;;
30000;SDS011;16845;48.670;9.000;2023-06-10T07:50:53;7.13;;;4.80;;
30000;SDS011;16845;48.670;9.000;2023-06-10T07:53:21;4.40;;;4.00;;
30000;SDS011;16845;48.670;9.000;2023-06-10T07:55:47;4.18;;;3.78;;
30000;SDS011;16845;48.670;9.000;2023-06-10T07:58:14;4.78;;;4.28;;
30000;SDS011;16845;48.670;9.000;2023-06-10T08:00:40;6.33;;;5.23;;
30000;SDS011;16845;48.670;9.000;2023-06-10T08:03:07;5.57;;;4.15;;
30000;SDS011;16845;48.670;9.000;2023-06-10T08:05:34;4.60;;;4.20;;
30000;SDS011;16845;48.670;9.000;2023-06-10T08:08:00;4.88;;;4.13;;
30000;SDS011;16845;48.670;9.000;2023-06-10T08:10:30;4.78;;;4.07;;
30000;SDS011;16845;48.670;9.000;2023-06-10T08:12:57;7.50;;;4.53;;
30000;SDS011;16845;48.670;9.000;2023-06-10T08:15:23;6.47;;;4.10;;
30000;SDS011;16845;48.670;9.000;2023-06-10T08:17:50;7.23;;;4.73;;
30000;SDS011;16845;48.670;9.000;2023-06-10T08:20:17;4.63;;;4.22;;
30000;SDS011;16845;48.670;9.000;2023-06-10T08:22:43;7.35;;;4.25;;
30000;SDS011;16845;48.670;9.000;2023-06-10T08:25:10;4.78;;;4.28;;
30000;SDS011;16845;48.670;9.000;2023-06-10T08:27:38;4.95;;;4.18;;
30000;SDS011;16845;48.670;9.000;2023-06-10T08:30:05;4.63;;;3.95;;
30000;SDS011;16845;48.670;9.000;2023-06-10T08:32:33;6.50;;;4.60;;
30000;SDS011;16845;48.670;9.000;2023-06-10T08:34:59;4.28;;;3.25;;
30000;SDS011;16845;48.670;9.000;2023-06-10T08:37:26;6.00;;;4.07;;
30000;SDS011;16845;48.670;9.000;2023-06-10T08:39:52;6.57;;;3.97;;
30000;SDS011;16845;48.670;9.000;2023-06-10T08:42:22;4.45;;;3.97;;
30000;SDS011;16845;48.670;9.000;2023-06-10T08:44:53;5.60;;;4.45;;
30000;SDS011;16845;48.670;9.000;2023-06-10T08:47:22;4.88;;;4.10;;
30000;SDS011;16845;48.670;9.000;2023-06-10T08:49:49;4.20;;;3.75;;
30000;SDS011;16845;48.670;9.000;2023-06-10T08:52:17;7.63;;;4.00;;
30000;SDS011;16845;48.670;9.000;2023-06-10T08:54:47;4.70;;;4.25;;
30000;SDS011;16845;48.670;9.000;2023-06-10T08:57:17;5.93;;;4.25;;
30000;SDS011;16845;48.670;9.000;2023-06-10T08:59:44;5.15;;;4.63;;
30000;SDS011;16845;48.670;9.000;2023-06-10T09:02:12;4.70;;;4.20;;
30000;SDS011;16845;48.670;9.000;2023-06-10T09:04:40;4.20;;;3.80;;
30000;SDS011;16845;48.670;9.000;2023-06-10T09:07:08;5.90;;;4.93;;
30000;SDS011;16845;48.670;9.000;2023-06-10T09:09:36;4.68;;;3.45;;
30000;SDS011;16845;48.670;9.000;2023-06-10T09:12:03;4.05;;;3.65;;
30000;SDS011;16845;48.670;9.000;2023-06-10T09:14:30;5.97;;;3.85;;
30000;SDS011;16845;48.670;9.000;2023-06-10T09:16:56;6.45;;;4.45;;
30000;SDS011;16845;48.670;9.000;2023-06-10T09:19:24;4.28;;;3.88;;
30000;SDS011;16845;48.670;9.000;2023-06-10T09:21:51;3.92;;;3.28;;
30000;SDS011;16845;48.670;9.000;2023-06-10T09:24:18;5.47;;;3.50;;
30000;SDS011;16845;48.670;9.000;2023-06-10T09:26:44;3.83;;;3.42;;
30000;SDS011;16845;48.670;9.000;2023-06-10T09:29:11;6.63;;;3.40;;
30000;SDS011;16845;48.670;9.000;2023-06-10T09:31:38;4.00;;;3.60;;
30000;SDS011;16845;48.670;9.000;2023-06-10T09:34:06;5.25;;;3.35;;
30000;SDS011;16845;48.670;9.000;2023-06-10T09:36:37;5.43;;;3.75;;
30000;SDS011;16845;48.670;9.000;2023-06-10T09:39:04;4.35;;;3.35;;
30000;SDS011;16845;48.670;9.000;2023-06-10T09:41:31;5.35;;;3.33;;
30000;SDS011;16845;48.670;9.000;2023-06-10T09:43:58;3.80;;;3.50;;
30000;SDS011;16845;48.670;9.000;2023-06-10T09:46:25;5.28;;;3.63;;
30000;SDS011;16845;48.670;9.000;2023-06-10T09:48:57;4.13;;;3.60;;
30000;SDS011;16845;48.670;9.000;2023-06-10T09:51:23;4.20;;;3.80;;
30000;SDS011;16845;48.670;9.000;2023-06-10T09:53:51;4.88;;;3.90;;
30000;SDS011;16845;48.670;9.000;2023-06-10T09:56:19;4.70;;;3.55;;
30000;SDS011;16845;48.670;9.000;2023-06-10T10:01:12;6.80;;;4.28;;
30000;SDS011;16845;48.670;9.000;2023-06-10T10:03:43;4.40;;;4.00;;
30000;SDS011;16845;48.670;9.000;2023-06-10T10:06:10;4.35;;;3.95;;
30000;SDS011;16845;48.670;9.000;2023-06-10T10:08:37;5.57;;;3.80;;
30000;SDS011;16845;48.670;9.000;2023-06-10T10:11:05;7.22;;;3.72;;
30000;SDS011;16845;48.670;9.000;2023-06-10T10:13:33;4.53;;;3.88;;
30000;SDS011;16845;48.670;9.000;2023-06-10T10:16:01;4.65;;;4.25;;
30000;SDS011;16845;48.670;9.000;2023-06-10T10:18:31;4.15;;;3.70;;
30000;SDS011;16845;48.670;9.000;2023-06-10T10:21:01;4.45;;;3.42;;
30000;SDS011;16845;48.670;9.000;2023-06-10T10:23:32;5.20;;;3.53;;
30000;SDS011;16845;48.670;9.000;2023-06-10T10:26:03;5.40;;;3.50;;
30000;SDS011;16845;48.670;9.000;2023-06-10T10:28:37;3.10;;;2.80;;
30000;SDS011;16845;48.670;9.000;2023-06-10T10:31:11;3.40;;;3.10;;
30000;SDS011;16845;48.670;9.000;2023-06-10T10:33:40;7.28;;;3.50;;
30000;SDS011;16845;48.670;9.000;2023-06-10T10:36:22;4.13;;;3.05;;
30000;SDS011;16845;48.670;9.000;2023-06-10T10:38:48;3.75;;;3.20;;
30000;SDS011;16845;48.670;9.000;2023-06-10T10:41:19;3.20;;;3.00;;
30000;SDS011;16845;48.670;9.000;2023-06-10T10:43:47;3.38;;;3.08;;
30000;SDS011;16845;48.670;9.000;2023-06-10T10:46:15;3.47;;;3.17;;
30000;SDS011;16845;48.670;9.000;2023-06-10T10:48:43;4.10;;;3.20;;
30000;SDS011;16845;48.670;9.000;2023-06-10T10:51:10;3.55;;;3.22;;
30000;SDS011;16845;48.670;9.000;2023-06-10T10:53:37;3.60;;;3.20;;
30000;SDS011;16845;48.670;9.000;2023-06-10T10:56:04;5.32;;;3.45;;
30000;SDS011;16845;48.670;9.000;2023-06-10T10:58:33;9.38;;;3.55;;
30000;SDS011;16845;48.670;9.000;2023-06-10T11:01:01;6.88;;;3.42;;
30000;SDS011;16845;48.670;9.000;2023-06-10T11:03:41;8.60;;;3.90;;
30000;SDS011;16845;48.670;9.000;2023-06-10T11:06:11;3.88;;;3.45;;
30000;SDS011;16845;48.670;9.000;2023-06-10T11:08:45;6.32;;;4.07;;
30000;SDS011;16845;48.670;9.000;2023-06-10T11:11:19;5.80;;;3.50;;
30000;SDS011;16845;48.670;9.000;2023-06-10T11:14:08;4.63;;;3.88;;
30000;SDS011;16845;48.670;9.000;2023-06-10T11:16:38;7.05;;;3.40;;
30000;SDS011;16845;48.670;9.000;2023-06-10T11:19:06;5.28;;;3.50;;
30000;SDS011;16845;48.670;9.000;2023-06-10T11:21:37;3.60;;;3.30;;
30000;SDS011;16845;48.670;9.000;2023-06-10T11:24:23;3.80;;;2.88;;
30000;SDS011;16845;48.670;9.000;2023-06-10T11:26:50;3.00;;;2.72;;
30000;SDS011;16845;48.670;9.000;2023-06-10T11:29:18;3.42;;;3.13;;
30000;SDS011;16845;48.670;9.000;2023-06-10T11:31:45;3.28;;;2.80;;
30000;SDS011;16845;48.670;9.000;2023-06-10T11:34:20;3.13;;;2.83;;
30000;SDS011;16845;48.670;9.000;2023-06-10T11:36:48;4.32;;;3.20;;
30000;SDS011;16845;48.670;9.000;2023-06-10T11:39:15;3.78;;;2.85;;
30000;SDS011;16845;48.670;9.000;2023-06-10T11:41:45;4.20;;;2.83;;
30000;SDS011;16845;48.670;9.000;2023-06-10T11:44:12;3.20;;;3.00;;
30000;SDS011;16845;48.670;9.000;2023-06-10T11:46:47;4.18;;;3.20;;
30000;SDS011;16845;48.670;9.000;2023-06-10T11:49:14;3.83;;;3.35;;
30000;SDS011;16845;48.670;9.000;2023-06-10T11:51:40;3.40;;;3.10;;
30000;SDS011;16845;48.670;9.000;2023-06-10T11:56:34;6.22;;;3.42;;
30000;SDS011;16845;48.670;9.000;2023-06-10T12:01:28;3.88;;;2.95;;
30000;SDS011;16845;48.670;9.000;2023-06-10T12:04:00;4.45;;;3.92;;
30000;SDS011;16845;48.670;9.000;2023-06-10T12:06:27;6.18;;;3.90;;
30000;SDS011;16845;48.670;9.000;2023-06-10T12:09:04;4.28;;;3.83;;
30000;SDS011;16845;48.670;9.000;2023-06-10T12:11:49;3.25;;;2.95;;
30000;SDS011;16845;48.670;9.000;2023-06-10T12:14:45;4.10;;;3.63;;
30000;SDS011;16845;48.670;9.000;2023-06-10T12:17:22;4.10;;;3.60;;
30000;SDS011;16845;48.670;9.000;2023-06-10T12:20:03;7.38;;;3.10;;
30000;SDS011;16845;48.670;9.000;2023-06-10T12:22:35;3.72;;;3.42;;
30000;SDS011;16845;48.670;9.000;2023-06-10T12:25:03;6.50;;;3.55;;
30000;SDS011;16845;48.670;9.000;2023-06-10T12:27:31;4.85;;;3.05;;
30000;SDS011;16845;48.670;9.000;2023-06-10T12:29:58;3.45;;;3.15;;
30000;SDS011;16845;48.670;9.000;2023-06-10T12:32:34;3.35;;;3.05;;
30000;SDS011;16845;48.670;9.000;2023-06-10T12:35:03;8.13;;;3.95;;
30000;SDS011;16845;48.670;9.000;2023-06-10T12:37:31;4.70;;;3.65;;
30000;SDS011;16845;48.670;9.000;2023-06-10T12:39:59;4.00;;;3.53;;
30000;SDS011;16845;48.670;9.000;2023-06-10T12:42:26;3.45;;;3.13;;
30000;SDS011;16845;48.670;9.000;2023-06-10T12:47:20;3.75;;;3.40;;
30000;SDS011;16845;48.670;9.000;2023-06-10T12:49:55;3.65;;;3.35;;
30000;SDS011;16845;48.670;9.000;2023-06-10T12:52:22;6.10;;;4.15;;
30000;SDS011;16845;48.670;9.000;2023-06-10T12:54:49;3.83;;;3.13;;
30000;SDS011;16845;48.670;9.000;2023-06-10T12:57:15;6.93;;;4.30;;
30000;SDS011;16845;48.670;9.000;2023-06-10T12:59:42;4.95;;;3.78;;
30000;SDS011;16845;48.670;9.000;2023-06-10T13:02:08;5.57;;;3.85;;
30000;SDS011;16845;48.670;9.000;2023-06-10T13:04:35;4.18;;;3.78;;
30000;SDS011;16845;48.670;9.000;2023-06-10T13:07:01;4.15;;;3.75;;
30000;SDS011;16845;48.670;9.000;2023-06-10T13:09:30;3.63;;;3.33;;
30000;SDS011;16845;48.670;9.000;2023-06-10T13:11:56;4.75;;;3.72;;
30000;SDS011;16845;48.670;9.000;2023-06-10T13:14:23;4.45;;;2.80;;
30000;SDS011;16845;48.670;9.000;2023-06-10T13:16:49;3.38;;;3.08;;
30000;SDS011;16845;48.670;9.000;2023-06-10T13:19:16;12.65;;;3.05;;
30000;SDS011;16845;48.670;9.000;2023-06-10T13:21:42;4.35;;;3.38;;
30000;SDS011;16845;48.670;9.000;2023-06-10T13:24:09;4.20;;;3.78;;
30000;SDS011;16845;48.670;9.000;2023-06-10T13:26:37;4.53;;;3.45;;
30000;SDS011;16845;48.670;9.000;2023-06-10T13:29:03;5.78;;;3.97;;
30000;SDS011;16845;48.670;9.000;2023-06-10T13:31:30;4.55;;;3.72;;
30000;SDS011;16845;48.670;9.000;2023-06-10T13:33:57;4.22;;;3.67;;
30000;SDS011;16845;48.670;9.000;2023-06-10T13:36:23;3.78;;;3.47;;
30000;SDS011;16845;48.670;9.000;2023-06-10T13:38:50;7.93;;;4.05;;
30000;SDS011;16845;48.670;9.000;2023-06-10T13:41:16;5.90;;;3.97;;
30000;SDS011;16845;48.670;9.000;2023-06-10T13:43:44;4.97;;;3.70;;
30000;SDS011;16845;48.670;9.000;2023-06-10T13:46:11;6.40;;;3.53;;
30000;SDS011;16845;48.670;9.000;2023-06-10T13:48:37;4.15;;;3.72;;
30000;SDS011;16845;48.670;9.000;2023-06-10T13:51:04;3.72;;;3.42;;
30000;SDS011;16845;48.670;9.000;2023-06-10T13:53:30;4.07;;;3.67;;
30000;SDS011;16845;48.670;9.000;2023-06-10T13:55:57;5.97;;;3.28;;
30000;SDS011;16845;48.670;9.000;2023-06-10T13:58:23;3.65;;;3.20;;
30000;SDS011;16845;48.670;9.000;2023-06-10T14:00:51;3.30;;;3.00;;
30000;SDS011;16845;48.670;9.000;2023-06-10T14:03:18;3.33;;;3.05;;
30000;SDS011;16845;48.670;9.000;2023-06-10T14:08:11;5.60;;;3.58;;
30000;SDS011;16845;48.670;9.000;2023-06-10T14:10:37;8.05;;;3.40;;
30000;SDS011;16845;48.670;9.000;2023-06-10T14:13:04;4.57;;;3.40;;
30000;SDS011;16845;48.670;9.000;2023-06-10T14:15:30;3.53;;;3.03;;
30000;SDS011;16845;48.670;9.000;2023-06-10T14:17:58;5.68;;;3.60;;
30000;SDS011;16845;48.670;9.000;2023-06-10T14:20:25;7.13;;;3.70;;
30000;SDS011;16845;48.670;9.000;2023-06-10T14:22:51;4.18;;;3.75;;
30000;SDS011;16845;48.670;9.000;2023-06-10T14:25:18;4.03;;;3.63;;
30000;SDS011;16845;48.670;9.000;2023-06-10T14:27:45;4.78;;;3.78;;
30000;SDS011;16845;48.670;9.000;2023-06-10T14:30:11;4.18;;;3.70;;
30000;SDS011;16845;48.670;9.000;2023-06-10T14:32:38;5.38;;;3.92;;
30000;SDS011;16845;48.670;9.000;2023-06-10T14:35:07;5.13;;;3.83;;
30000;SDS011;16845;48.670;9.000;2023-06-10T14:37:34;4.88;;;3.92;;
30000;SDS011;16845;48.670;9.000;2023-06-10T14:40:00;4.05;;;3.58;;
30000;SDS011;16845;48.670;9.000;2023-06-10T14:42:27;5.55;;;3.20;;
30000;SDS011;16845;48.670;9.000;2023-06-10T14:44:54;4.10;;;3.70;;
30000;SDS011;16845;48.670;9.000;2023-06-10T14:47:21;3.70;;;3.38;;
30000;SDS011;16845;48.670;9.000;2023-06-10T14:49:47;4.32;;;3.55;;
30000;SDS011;16845;48.670;9.000;2023-06-10T14:52:15;4.30;;;3.13;;
30000;SDS011;16845;48.670;9.000;2023-06-10T14:54:42;4.30;;;3.20;;
30000;SDS011;16845;48.670;9.000;2023-06-10T14:57:08;3.28;;;2.97;;
30000;SDS011;16845;48.670;9.000;2023-06-10T14:59:36;3.65;;;3.35;;
30000;SDS011;16845;48.670;9.000;2023-06-10T15:02:02;3.45;;;3.15;;
30000;SDS011;16845;48.670;9.000;2023-06-10T15:04:29;3.20;;;2.90;;